LCPH/PFO METAR and TAF weather

Enter ICAO airport designator
Station Type Date Time Source
LCPH METAR 2021/05/14 04:30 UTC NOAA

LCPH 140430Z 03005KT CAVOK 20/04 Q1014


Station Type Date Time Source
LCPH Decoded METAR 2021/05/14 04:30 UTC NOAA

Paphos Airport, Cyprus (LCPH) 34-43N 032-29E 8M
May 14, 2021 - 12:30 AM EDT / 2021.05.14 0430 UTC
Wind: from the NNE (030 degrees) at 6 MPH (5 KT):0
Visibility: greater than 7 mile(s):0
Temperature: 68 F (20 C)
Dew Point: 39 F (4 C)
Relative Humidity: 34%
Pressure (altimeter): 29.94 in. Hg (1014 hPa)
ob: LCPH 140430Z 03005KT CAVOK 20/04 Q1014
cycle: 4

Station Type Date Time Source
LCPH TAF 2021/05/13 18:33 UTC NOAA

TAF LCPH 131730Z 1318/1418 30010KT 9999 FEW020
BECMG 1319/1323 01008KT PROB30
TEMPO 1320/1406 BKN010
BECMG 1408/1412 27013KT

Example: see airport list